MET'MAP v2.0
soon released !

Expected late october,
this new version will be
more efficient, smarter,
and hosted on a brand new
server x3 powerfull...
...and still free !


Not compatible ?
Try the mobile version !

LOG IN : | Subscribe | Disclaimer | Who is Orbifly ? |
ICAO code :

TAF - LIRM Grazzanise Caserta - 28 Feb 2020 01:21 UTC
Data Sources :     NOAA   


- Airport Elevation : 29 ft
- No reported NOTAMs.


LIRM - Grazzanise Caserta

Latest METAR recorded : 2015/08/11 07:55 LIRM 110755Z 06005KT 7000 -TSRA FEW018CB SCT030 BKN050 22/20 Q1011
TAF TAF LIRM
Valid from the 28 at 00:00 until the 28 at 09:00 UTC


272300Z 2800/2809 25012KT 9999 SCT030 SCT040
TEMPO 2800/2803 RA
TEMPO 2800/2805 25012G22KT

Source NOAA


MET'MAP, your aeronautical weather chart ! - Copyright ORBIFLY December 2007

Programming & Development : Alexandra Zaïnal
Co-Developer : Marc-Olivier Méhu
Technical & hardware support : Manuel Goepfert
Concept & Financing : Baudouin d'Aumeries